createdAt,value
2022-08-24T00:02:01.676Z,1.90
2022-08-24T00:04:28.617Z,2.00
2022-08-24T00:06:58.712Z,1.80
2022-08-24T00:09:25.212Z,1.90
2022-08-24T00:11:51.880Z,1.95
2022-08-24T00:14:18.712Z,1.80
2022-08-24T00:16:45.230Z,2.00
2022-08-24T00:19:12.245Z,1.80
2022-08-24T00:21:38.878Z,1.70
2022-08-24T00:24:05.721Z,1.60
2022-08-24T00:26:32.377Z,2.08
2022-08-24T00:28:59.011Z,1.98
2022-08-24T00:31:25.833Z,1.70
2022-08-24T00:33:52.307Z,1.80
2022-08-24T00:36:21.503Z,1.88
2022-08-24T00:38:48.064Z,2.08
2022-08-24T00:41:15.363Z,2.33
2022-08-24T00:43:51.140Z,1.70
2022-08-24T00:46:20.773Z,1.80
2022-08-24T00:48:49.657Z,1.92
2022-08-24T00:51:23.884Z,1.75
2022-08-24T00:53:52.938Z,1.88
2022-08-24T00:56:21.326Z,1.90
2022-08-24T00:58:56.969Z,1.95
2022-08-24T01:01:24.613Z,1.83
2022-08-24T01:03:56.591Z,1.80
2022-08-24T01:06:23.800Z,2.05
2022-08-24T01:08:56.696Z,1.95
2022-08-24T01:11:24.780Z,1.70
2022-08-24T01:13:52.316Z,1.70
2022-08-24T01:16:39.488Z,1.83
2022-08-24T01:19:09.569Z,1.80
2022-08-24T01:21:51.113Z,1.70
2022-08-24T01:24:17.880Z,2.00
2022-08-24T01:26:46.922Z,2.00
2022-08-24T01:29:15.792Z,1.92
2022-08-24T01:31:42.870Z,2.10
2022-08-24T01:34:09.467Z,1.70
2022-08-24T01:36:47.147Z,2.00
2022-08-24T01:39:22.189Z,2.10
2022-08-24T01:41:49.034Z,2.00
2022-08-24T01:44:16.005Z,2.08
2022-08-24T01:46:46.488Z,1.80
2022-08-24T01:49:13.510Z,1.80
2022-08-24T01:51:40.051Z,2.00
2022-08-24T01:54:06.661Z,1.80
2022-08-24T01:56:33.606Z,1.90
2022-08-24T01:59:00.191Z,2.13
2022-08-24T02:01:27.524Z,2.30
2022-08-24T02:03:53.997Z,2.10
2022-08-24T02:06:20.902Z,2.30
2022-08-24T02:08:47.401Z,2.20
2022-08-24T02:11:13.831Z,2.05
2022-08-24T02:13:41.455Z,1.80
2022-08-24T02:16:08.250Z,1.95
2022-08-24T02:18:35.710Z,1.75
2022-08-24T02:21:02.358Z,2.13
2022-08-24T02:23:29.209Z,1.60
2022-08-24T02:25:56.315Z,2.20
2022-08-24T02:28:22.826Z,2.13
2022-08-24T02:30:49.734Z,1.90
2022-08-24T02:33:16.557Z,2.10
2022-08-24T02:35:43.090Z,1.92
2022-08-24T02:38:10.197Z,1.92
2022-08-24T02:40:37.471Z,2.00
2022-08-24T02:43:04.046Z,1.90
2022-08-24T02:45:30.532Z,2.13
2022-08-24T02:47:56.964Z,1.80
2022-08-24T02:50:23.644Z,1.92
2022-08-24T02:52:50.481Z,2.17
2022-08-24T02:55:19.878Z,2.17
2022-08-24T02:57:47.954Z,2.20
2022-08-24T03:00:15.626Z,1.83
2022-08-24T03:02:42.123Z,2.03
2022-08-24T03:05:10.449Z,2.10
2022-08-24T03:07:37.387Z,2.13
2022-08-24T03:10:07.431Z,2.13
2022-08-24T03:12:34.858Z,2.22
2022-08-24T03:15:04.649Z,2.10
2022-08-24T03:17:33.604Z,2.03
2022-08-24T03:20:00.826Z,2.30
2022-08-24T03:22:28.004Z,2.40
2022-08-24T03:24:54.424Z,2.30
2022-08-24T03:27:21.045Z,2.40
2022-08-24T03:29:48.027Z,2.00
2022-08-24T03:32:16.641Z,2.28
2022-08-24T03:34:43.199Z,2.22
2022-08-24T03:37:09.996Z,2.25
2022-08-24T03:39:36.478Z,2.13
2022-08-24T03:42:02.989Z,1.90
2022-08-24T03:44:29.428Z,2.20
2022-08-24T03:46:56.042Z,2.20
2022-08-24T03:49:22.768Z,2.20
2022-08-24T03:51:50.280Z,2.20
2022-08-24T03:54:16.883Z,2.15
2022-08-24T03:56:43.440Z,2.53
2022-08-24T03:59:10.684Z,2.20
2022-08-24T04:01:38.501Z,2.38
2022-08-24T04:04:05.584Z,2.35
2022-08-24T04:06:32.031Z,2.10
2022-08-24T04:08:58.569Z,2.20
2022-08-24T04:11:26.177Z,2.10
2022-08-24T04:13:53.615Z,2.70
2022-08-24T04:16:20.920Z,2.13
2022-08-24T04:18:47.971Z,2.28
2022-08-24T04:21:23.079Z,2.25
2022-08-24T04:23:50.333Z,2.20
2022-08-24T04:26:25.668Z,2.25
2022-08-24T04:29:08.274Z,2.45
2022-08-24T04:31:35.802Z,2.42
2022-08-24T04:34:02.232Z,2.38
2022-08-24T04:36:28.678Z,2.45
2022-08-24T04:38:55.120Z,2.47
2022-08-24T04:41:31.126Z,2.20
2022-08-24T04:43:59.435Z,2.28
2022-08-24T04:46:26.197Z,2.20
2022-08-24T04:48:52.756Z,2.38
2022-08-24T04:51:19.983Z,2.45
2022-08-24T04:53:47.005Z,2.30
2022-08-24T04:56:16.620Z,2.80
2022-08-24T04:58:43.538Z,2.35
2022-08-24T05:01:13.125Z,2.15
2022-08-24T05:03:39.704Z,2.25
2022-08-24T05:06:06.266Z,2.42
2022-08-24T05:08:33.552Z,2.60
2022-08-24T05:11:00.640Z,2.40
2022-08-24T05:13:27.167Z,2.22
2022-08-24T05:15:53.800Z,2.17
2022-08-24T05:18:20.341Z,2.22
2022-08-24T05:20:47.122Z,2.30
2022-08-24T05:23:14.153Z,2.10
2022-08-24T05:25:40.900Z,2.35
2022-08-24T05:30:51.251Z,2.40
2022-08-24T05:33:21.516Z,2.42
2022-08-24T05:35:52.924Z,2.17
2022-08-24T05:38:22.944Z,2.35
2022-08-24T05:40:53.802Z,2.08
2022-08-24T05:43:24.226Z,2.10
2022-08-24T05:45:54.756Z,1.92
2022-08-24T05:48:25.108Z,2.22
2022-08-24T05:50:56.845Z,2.40
2022-08-24T05:53:24.209Z,2.08
2022-08-24T05:55:54.443Z,2.33
2022-08-24T05:58:31.296Z,2.20
2022-08-24T06:01:00.019Z,2.50
2022-08-24T06:03:27.014Z,2.33
2022-08-24T06:05:54.109Z,2.30
2022-08-24T06:08:21.569Z,2.28
2022-08-24T06:10:48.147Z,2.20
2022-08-24T06:13:14.819Z,2.50
2022-08-24T06:15:42.722Z,2.60
2022-08-24T06:18:14.578Z,2.05
2022-08-24T06:20:42.400Z,2.15
2022-08-24T06:23:09.598Z,2.60
2022-08-24T06:25:57.354Z,2.58
2022-08-24T06:28:24.306Z,2.55
2022-08-24T06:30:50.781Z,2.42
2022-08-24T06:33:17.219Z,2.72
2022-08-24T06:35:46.960Z,2.60
2022-08-24T06:38:13.659Z,2.92
2022-08-24T06:40:40.128Z,2.38
2022-08-24T06:43:06.545Z,2.58
2022-08-24T06:45:33.133Z,2.50
2022-08-24T06:47:59.950Z,2.40
2022-08-24T06:50:27.102Z,2.60
2022-08-24T06:52:53.531Z,2.67
2022-08-24T06:55:19.994Z,2.80
2022-08-24T06:57:50.402Z,2.72
2022-08-24T07:00:19.210Z,2.60
2022-08-24T07:02:45.719Z,2.60
2022-08-24T07:05:12.487Z,3.13
2022-08-24T07:07:38.942Z,2.83
2022-08-24T07:10:06.153Z,2.72
2022-08-24T07:12:32.786Z,2.78
2022-08-24T07:14:59.476Z,2.70
2022-08-24T07:17:25.957Z,2.60
2022-08-24T07:19:52.365Z,3.00
2022-08-24T07:22:18.822Z,2.67
2022-08-24T07:24:46.648Z,2.65
2022-08-24T07:27:14.021Z,2.80
2022-08-24T07:29:52.758Z,2.60
2022-08-24T07:32:23.392Z,2.85
2022-08-24T07:34:50.658Z,2.95
2022-08-24T07:37:17.225Z,3.10
2022-08-24T07:39:43.920Z,2.70
2022-08-24T07:42:18.888Z,2.60
2022-08-24T07:44:49.753Z,2.88
2022-08-24T07:47:37.022Z,2.95
2022-08-24T07:50:02.611Z,2.90
2022-08-24T07:52:29.120Z,3.05
2022-08-24T07:54:55.614Z,2.95
2022-08-24T07:57:22.079Z,3.38
2022-08-24T07:59:48.529Z,3.20
2022-08-24T08:02:15.290Z,3.20
2022-08-24T08:04:42.168Z,2.80
2022-08-24T08:07:08.938Z,2.80
2022-08-24T08:09:38.429Z,2.90
2022-08-24T08:12:05.788Z,3.50
2022-08-24T08:14:32.438Z,3.40
2022-08-24T08:17:02.621Z,3.00
2022-08-24T08:19:32.482Z,3.00
2022-08-24T08:22:17.775Z,2.90
2022-08-24T08:24:44.654Z,3.22
2022-08-24T08:27:11.974Z,3.25
2022-08-24T08:29:42.488Z,3.25
2022-08-24T08:32:10.103Z,2.85
2022-08-24T08:34:36.599Z,3.22
2022-08-24T08:37:03.955Z,3.10
2022-08-24T08:39:30.602Z,2.90
2022-08-24T08:42:14.283Z,3.30
2022-08-24T08:44:50.747Z,3.17
2022-08-24T08:47:27.354Z,3.53
2022-08-24T08:49:59.994Z,3.13
2022-08-24T08:52:41.803Z,2.80
2022-08-24T08:55:37.609Z,3.63
2022-08-24T08:58:22.871Z,3.33
2022-08-24T09:00:57.783Z,3.38
2022-08-24T09:03:29.421Z,3.22
2022-08-24T09:05:58.980Z,3.28
2022-08-24T09:08:43.944Z,3.10
2022-08-24T09:11:24.416Z,3.10
2022-08-24T09:14:02.328Z,3.15
2022-08-24T09:16:38.246Z,3.17
2022-08-24T09:19:25.985Z,3.42
2022-08-24T09:22:03.303Z,2.90
2022-08-24T09:24:32.496Z,3.00
2022-08-24T09:27:08.030Z,3.05
2022-08-24T09:29:34.674Z,3.22
2022-08-24T09:32:22.696Z,2.88
2022-08-24T09:35:00.047Z,2.92
2022-08-24T09:37:26.699Z,2.72
2022-08-24T09:40:01.949Z,3.35
2022-08-24T09:42:28.588Z,3.60
2022-08-24T09:44:55.267Z,3.70
2022-08-24T09:47:37.423Z,3.50
2022-08-24T09:52:49.063Z,3.10
2022-08-24T09:55:27.603Z,3.15
2022-08-24T09:58:00.825Z,3.40
2022-08-24T10:00:30.940Z,3.63
2022-08-24T10:03:15.759Z,3.40
2022-08-24T10:06:04.620Z,3.63
2022-08-24T10:08:48.897Z,3.30
2022-08-24T10:11:15.334Z,3.33
2022-08-24T10:13:52.652Z,3.10
2022-08-24T10:16:25.230Z,3.42
2022-08-24T10:18:59.608Z,3.22
2022-08-24T10:21:26.147Z,3.40
2022-08-24T10:24:13.433Z,3.75
2022-08-24T10:26:56.088Z,3.20
2022-08-24T10:29:41.392Z,3.60
2022-08-24T10:32:07.835Z,3.20
2022-08-24T10:34:42.296Z,3.05
2022-08-24T10:37:26.129Z,3.47
2022-08-24T10:40:13.149Z,2.95
2022-08-24T10:43:27.595Z,3.50
2022-08-24T10:46:17.077Z,3.25
2022-08-24T10:48:52.924Z,3.50
2022-08-24T10:51:26.019Z,3.80
2022-08-24T10:53:53.753Z,3.58
2022-08-24T10:56:21.567Z,3.17
2022-08-24T10:59:14.033Z,3.20
2022-08-24T11:01:40.576Z,2.70
2022-08-24T11:04:08.752Z,2.83
2022-08-24T11:06:40.830Z,3.00
2022-08-24T11:09:09.838Z,3.13
2022-08-24T11:11:40.450Z,2.80
2022-08-24T11:14:16.118Z,3.10
2022-08-24T11:16:44.873Z,2.83
2022-08-24T11:19:13.390Z,3.42
2022-08-24T11:21:53.640Z,3.25
2022-08-24T11:24:23.958Z,3.65
2022-08-24T11:26:53.669Z,3.30
2022-08-24T11:29:21.145Z,3.20
2022-08-24T11:31:50.245Z,3.30
2022-08-24T11:34:19.163Z,3.65
2022-08-24T11:36:45.673Z,3.30
2022-08-24T11:39:23.498Z,3.38
2022-08-24T11:41:53.004Z,3.50
2022-08-24T11:44:28.333Z,3.03
2022-08-24T11:47:02.576Z,3.10
2022-08-24T11:49:37.999Z,3.33
2022-08-24T11:52:13.438Z,3.33
2022-08-24T11:54:39.891Z,3.15
2022-08-24T11:57:15.281Z,3.10
2022-08-24T11:59:41.866Z,3.78
2022-08-24T12:02:11.510Z,3.42
2022-08-24T12:04:40.793Z,3.00
2022-08-24T12:07:13.425Z,3.28
2022-08-24T12:09:58.607Z,3.38
2022-08-24T12:12:29.584Z,3.13
2022-08-24T12:15:01.901Z,3.50
2022-08-24T12:17:34.005Z,3.42
2022-08-24T12:20:03.527Z,3.53
2022-08-24T12:22:31.651Z,3.33
2022-08-24T12:24:59.709Z,3.40
2022-08-24T12:27:29.253Z,3.63
2022-08-24T12:30:05.335Z,4.03
2022-08-24T12:32:43.536Z,3.83
2022-08-24T12:35:10.311Z,3.78
2022-08-24T12:37:40.949Z,3.88
2022-08-24T12:40:26.187Z,3.50
2022-08-24T12:42:58.882Z,3.50
2022-08-24T12:45:25.868Z,3.75
2022-08-24T12:48:07.852Z,4.07
2022-08-24T12:50:42.694Z,4.20
2022-08-24T12:53:38.116Z,3.50
2022-08-24T12:56:23.728Z,3.70
2022-08-24T12:59:10.448Z,3.50
2022-08-24T13:01:39.814Z,3.70
2022-08-24T13:04:12.329Z,3.78
2022-08-24T13:06:57.627Z,3.75
2022-08-24T13:09:28.359Z,3.42
2022-08-24T13:11:56.822Z,3.10
2022-08-24T13:14:24.922Z,3.35
2022-08-24T13:17:06.863Z,3.67
2022-08-24T13:19:41.288Z,3.97
2022-08-24T13:22:10.774Z,3.70
2022-08-24T13:24:40.272Z,3.60
2022-08-24T13:27:12.734Z,4.65
2022-08-24T13:29:43.771Z,3.90
2022-08-24T13:32:21.339Z,3.47
2022-08-24T13:34:48.885Z,3.30
2022-08-24T13:37:23.768Z,3.83
2022-08-24T13:39:59.165Z,3.60
2022-08-24T13:42:44.385Z,4.25
2022-08-24T13:45:29.446Z,4.03
2022-08-24T13:48:03.089Z,4.00
2022-08-24T13:50:48.439Z,3.70
2022-08-24T13:53:33.746Z,3.95
2022-08-24T13:56:12.640Z,4.10
2022-08-24T13:58:57.635Z,3.67
2022-08-24T14:01:48.256Z,3.72
2022-08-24T14:04:14.735Z,3.95
2022-08-24T14:06:53.580Z,3.60
2022-08-24T14:09:38.550Z,3.78
2022-08-24T14:12:24.169Z,3.75
2022-08-24T14:15:08.781Z,3.63
2022-08-24T14:18:02.090Z,3.72
2022-08-24T14:20:48.475Z,3.67
2022-08-24T14:23:33.744Z,4.25
2022-08-24T14:26:18.702Z,4.30
2022-08-24T14:28:45.350Z,4.25
2022-08-24T14:31:14.653Z,3.88
2022-08-24T14:33:47.490Z,4.07
2022-08-24T14:36:17.684Z,3.97
2022-08-24T14:39:04.148Z,3.83
2022-08-24T14:41:49.464Z,3.75
2022-08-24T14:44:25.326Z,3.75
2022-08-24T14:46:56.854Z,4.03
2022-08-24T14:49:26.358Z,4.13
2022-08-24T14:52:17.672Z,4.10
2022-08-24T14:54:44.121Z,3.50
2022-08-24T14:57:10.549Z,4.00
2022-08-24T14:59:49.824Z,3.80
2022-08-24T15:02:37.072Z,4.07
2022-08-24T15:05:03.528Z,4.50
2022-08-24T15:07:32.435Z,4.53
2022-08-24T15:10:00.472Z,4.63
2022-08-24T15:12:38.386Z,4.30
2022-08-24T15:15:04.913Z,4.25
2022-08-24T15:17:43.666Z,4.68
2022-08-24T15:20:36.082Z,4.07
2022-08-24T15:23:07.786Z,4.40
2022-08-24T15:25:34.272Z,3.80
2022-08-24T15:28:08.051Z,4.35
2022-08-24T15:30:37.089Z,4.10
2022-08-24T15:33:18.946Z,4.07
2022-08-24T15:35:50.354Z,4.15
2022-08-24T15:38:24.724Z,3.97
2022-08-24T15:41:12.750Z,4.03
2022-08-24T15:44:03.819Z,3.88
2022-08-24T15:46:40.619Z,3.67
2022-08-24T15:49:18.149Z,3.60
2022-08-24T15:52:03.489Z,4.20
2022-08-24T15:54:33.448Z,3.63
2022-08-24T15:57:03.023Z,3.90
2022-08-24T15:59:31.350Z,3.67
2022-08-24T16:02:17.973Z,4.15
2022-08-24T16:04:47.423Z,3.83
2022-08-24T16:07:15.177Z,4.00
2022-08-24T16:09:42.292Z,3.88
2022-08-24T16:12:09.100Z,3.88
2022-08-24T16:14:47.637Z,4.25
2022-08-24T16:17:20.359Z,3.88
2022-08-24T16:19:54.000Z,4.13
2022-08-24T16:22:29.856Z,3.63
2022-08-24T16:25:17.325Z,4.10
2022-08-24T16:28:02.530Z,3.83
2022-08-24T16:30:52.911Z,3.33
2022-08-24T16:33:32.010Z,3.58
2022-08-24T16:35:59.256Z,3.70
2022-08-24T16:38:26.290Z,3.33
2022-08-24T16:40:52.860Z,3.50
2022-08-24T16:43:19.765Z,3.38
2022-08-24T16:45:47.051Z,3.30
2022-08-24T16:48:13.892Z,3.65
2022-08-24T16:50:40.340Z,3.97
2022-08-24T16:53:06.805Z,3.53
2022-08-24T16:55:33.325Z,3.25
2022-08-24T16:58:01.688Z,3.45
2022-08-24T17:00:28.652Z,3.67
2022-08-24T17:02:55.224Z,3.15
2022-08-24T17:05:22.137Z,3.95
2022-08-24T17:07:50.258Z,3.58
2022-08-24T17:10:17.876Z,3.30
2022-08-24T17:12:45.064Z,3.78
2022-08-24T17:15:12.156Z,3.50
2022-08-24T17:17:39.225Z,3.75
2022-08-24T17:20:07.025Z,3.80
2022-08-24T17:22:33.603Z,3.65
2022-08-24T17:25:00.070Z,3.75
2022-08-24T17:27:29.053Z,3.85
2022-08-24T17:29:55.585Z,3.20
2022-08-24T17:32:22.056Z,3.38
2022-08-24T17:34:48.578Z,3.17
2022-08-24T17:37:15.368Z,3.63
2022-08-24T17:39:41.892Z,3.63
2022-08-24T17:42:27.942Z,3.70
2022-08-24T17:44:55.310Z,4.15
2022-08-24T17:47:22.268Z,3.60
2022-08-24T17:49:48.843Z,4.18
2022-08-24T17:52:15.397Z,4.03
2022-08-24T17:54:41.883Z,4.10
2022-08-24T17:57:10.787Z,3.65
2022-08-24T17:59:38.594Z,3.80
2022-08-24T18:02:08.892Z,3.78
2022-08-24T18:04:36.386Z,3.80
2022-08-24T18:07:06.138Z,3.50
2022-08-24T18:09:38.837Z,3.88
2022-08-24T18:12:05.955Z,4.22
2022-08-24T18:14:34.628Z,4.00
2022-08-24T18:17:09.966Z,3.97
2022-08-24T18:19:36.800Z,3.63
2022-08-24T18:22:04.628Z,4.00
2022-08-24T18:24:34.580Z,3.45
2022-08-24T18:27:03.172Z,3.90
2022-08-24T18:29:37.219Z,3.78
2022-08-24T18:32:04.106Z,3.30
2022-08-24T18:34:32.584Z,3.53
2022-08-24T18:36:59.056Z,3.65
2022-08-24T18:39:25.547Z,3.80
2022-08-24T18:41:52.422Z,3.60
2022-08-24T18:44:20.931Z,3.60
2022-08-24T18:46:48.943Z,3.50
2022-08-24T18:49:16.123Z,3.60
2022-08-24T18:51:43.124Z,3.75
2022-08-24T18:54:11.124Z,3.78
2022-08-24T18:56:37.786Z,3.30
2022-08-24T18:59:04.873Z,3.38
2022-08-24T19:01:52.439Z,3.47
2022-08-24T19:04:19.070Z,3.58
2022-08-24T19:06:49.601Z,3.53
2022-08-24T19:09:16.545Z,3.30
2022-08-24T19:11:43.141Z,3.50
2022-08-24T19:14:09.833Z,3.53
2022-08-24T19:16:36.882Z,3.80
2022-08-24T19:19:04.588Z,3.60
2022-08-24T19:21:33.698Z,3.42
2022-08-24T19:24:04.599Z,3.50
2022-08-24T19:26:31.271Z,3.42
2022-08-24T19:28:57.736Z,3.83
2022-08-24T19:31:25.759Z,3.53
2022-08-24T19:33:52.707Z,4.25
2022-08-24T19:36:19.611Z,3.38
2022-08-24T19:38:49.271Z,3.53
2022-08-24T19:41:17.528Z,3.58
2022-08-24T19:44:04.953Z,3.83
2022-08-24T19:46:32.621Z,3.70
2022-08-24T19:48:59.119Z,3.15
2022-08-24T19:51:26.708Z,3.70
2022-08-24T19:53:53.139Z,3.08
2022-08-24T19:56:22.033Z,3.30
2022-08-24T19:58:53.600Z,3.70
2022-08-24T20:01:21.961Z,3.90
2022-08-24T20:03:48.825Z,3.80
2022-08-24T20:06:16.558Z,3.72
2022-08-24T20:08:43.340Z,3.90
2022-08-24T20:11:15.679Z,3.78
2022-08-24T20:13:42.965Z,3.75
2022-08-24T20:16:14.105Z,3.72
2022-08-24T20:18:41.024Z,3.60
2022-08-24T20:21:07.722Z,3.65
2022-08-24T20:23:34.446Z,3.65
2022-08-24T20:26:01.831Z,3.42
2022-08-24T20:28:37.863Z,3.55
2022-08-24T20:31:04.940Z,3.60
2022-08-24T20:33:42.706Z,3.25
2022-08-24T20:44:46.152Z,3.42
2022-08-24T20:47:13.588Z,3.55
2022-08-24T20:59:38.992Z,3.50
2022-08-24T21:02:27.180Z,3.33
2022-08-24T21:10:40.722Z,3.45
2022-08-24T21:13:08.153Z,3.38
2022-08-24T21:15:37.711Z,3.33
2022-08-24T21:18:30.052Z,3.30
2022-08-24T21:21:05.349Z,3.08
2022-08-24T21:27:12.044Z,3.20
2022-08-24T21:38:59.803Z,3.33
2022-08-24T21:44:59.095Z,3.03
2022-08-24T21:47:55.757Z,3.00
2022-08-24T21:56:25.818Z,2.60
2022-08-24T21:57:06.732Z,2.90
2022-08-24T22:00:02.117Z,2.85
2022-08-24T22:02:54.989Z,3.17
2022-08-24T22:05:31.559Z,2.72
2022-08-24T22:08:11.137Z,3.03
2022-08-24T22:10:38.543Z,3.15
2022-08-24T22:13:05.442Z,3.15
2022-08-24T22:15:35.526Z,2.65
2022-08-24T22:18:02.517Z,3.25
2022-08-24T22:20:29.286Z,3.13
2022-08-24T22:22:57.033Z,3.58
2022-08-24T22:25:30.256Z,3.10
2022-08-24T22:28:00.035Z,2.95
2022-08-24T22:30:41.371Z,3.42
2022-08-24T22:33:17.978Z,3.17
2022-08-24T22:35:53.195Z,3.38
2022-08-24T22:38:30.329Z,3.10
2022-08-24T22:41:10.473Z,3.25
2022-08-24T22:44:15.988Z,3.33
2022-08-24T22:47:29.403Z,3.15
2022-08-24T22:50:41.530Z,3.50
2022-08-24T22:56:52.735Z,3.50
2022-08-24T22:59:20.938Z,3.22
2022-08-24T23:01:48.777Z,3.45
2022-08-24T23:04:16.763Z,3.38
2022-08-24T23:06:43.462Z,3.28
2022-08-24T23:09:10.569Z,2.97
2022-08-24T23:11:37.388Z,3.40
2022-08-24T23:14:04.829Z,3.35
2022-08-24T23:16:32.839Z,2.85
2022-08-24T23:19:17.742Z,3.60
2022-08-24T23:21:44.386Z,2.90
2022-08-24T23:24:13.187Z,3.40
2022-08-24T23:26:40.310Z,3.03
2022-08-24T23:29:07.951Z,3.30
2022-08-24T23:31:34.603Z,3.28
2022-08-24T23:34:01.092Z,3.28
2022-08-24T23:36:27.996Z,3.22
2022-08-24T23:38:55.705Z,3.08
2022-08-24T23:41:23.754Z,3.13
2022-08-24T23:43:50.258Z,3.10
2022-08-24T23:46:16.780Z,2.80
2022-08-24T23:48:43.255Z,3.10
2022-08-24T23:51:20.184Z,2.90
2022-08-24T23:53:48.072Z,3.08
2022-08-24T23:56:19.498Z,2.63
2022-08-24T23:58:46.576Z,2.75
